Time;durP1;ratioP1;P1;durP2;ratioP2;P2;SDS_P1;SDS_P2;PMS_P1;PMS_P2;Temp;Humidity;BMP_temperature;BMP_pressure;BME280_temperature;BME280_humidity;BME280_pressure;Samples;Min_cycle;Max_cycle;Signal;HPM_P1;HPM_P2
2023/01/25 00:01:46;;;;;;;;;15.00;11.75;;;;;20.35;37.16;103483.06;5034823;28;45317;-72
2023/01/25 00:04:11;;;;;;;;;8.75;8.50;;;;;20.23;37.07;103466.25;5034995;28;45345;-72
2023/01/25 00:06:37;;;;;;;;;14.50;11.25;;;;;20.34;37.10;103481.38;5034829;28;45321;-72
2023/01/25 00:09:03;;;;;;;;;13.25;10.75;;;;;20.31;37.12;103483.38;5035001;28;45726;-72
2023/01/25 00:11:29;;;;;;;;;12.50;10.75;;;;;20.28;36.97;103473.84;5034966;28;45467;-72
2023/01/25 00:13:54;;;;;;;;;13.50;12.00;;;;;20.26;37.13;103465.19;5034880;28;45475;-72
2023/01/25 00:16:20;;;;;;;;;13.50;10.00;;;;;20.35;37.14;103484.88;5034899;28;46114;-72
2023/01/25 00:18:47;;;;;;;;;15.00;12.50;;;;;20.19;37.05;103456.84;5038188;28;45452;-72
2023/01/25 00:21:20;;;;;;;;;13.25;10.25;;;;;20.23;36.84;103455.66;5038460;28;45491;-72
2023/01/25 00:23:46;;;;;;;;;14.75;12.50;;;;;20.34;36.92;103473.47;5038325;28;45282;-72
2023/01/25 00:26:12;;;;;;;;;13.00;12.00;;;;;20.32;36.63;103467.44;5037882;28;45289;-72
2023/01/25 00:28:38;;;;;;;;;11.75;11.75;;;;;20.34;36.83;103468.16;5038054;28;45319;-72
2023/01/25 00:31:06;;;;;;;;;12.25;10.25;;;;;20.34;36.73;103454.94;5037910;28;45364;-72
2023/01/25 00:33:40;;;;;;;;;19.00;11.75;;;;;20.21;37.03;103432.94;5037933;28;45378;-72
2023/01/25 00:36:27;;;;;;;;;15.25;12.25;;;;;20.34;36.83;103459.38;5019881;28;46166;-72
2023/01/25 00:38:53;;;;;;;;;11.50;10.50;;;;;20.34;37.09;103459.38;5037843;28;45397;-72
2023/01/25 00:41:19;;;;;;;;;12.25;10.25;;;;;20.28;37.15;103444.78;5038059;28;45447;-72
2023/01/25 00:43:44;;;;;;;;;15.00;12.00;;;;;20.22;37.04;103432.00;5037506;28;45356;-72
2023/01/25 00:46:14;;;;;;;;;16.00;12.50;;;;;20.33;36.90;103447.94;5037491;28;46239;-72
2023/01/25 00:48:40;;;;;;;;;16.25;12.00;;;;;20.32;36.78;103443.63;5054644;28;45239;-72
2023/01/25 00:51:06;;;;;;;;;13.00;8.25;;;;;20.31;36.86;103444.56;5041340;28;45476;-72
2023/01/25 00:53:31;;;;;;;;;11.00;11.00;;;;;20.32;36.95;103441.00;5037807;28;45493;-72
2023/01/25 00:55:56;;;;;;;;;11.75;9.75;;;;;20.32;36.92;103443.63;5037457;28;47034;-72
2023/01/25 00:58:22;;;;;;;;;11.50;10.25;;;;;20.32;36.77;103443.63;5037229;28;45410;-72
2023/01/25 01:00:47;;;;;;;;;12.00;11.25;;;;;20.31;36.82;103441.94;5037809;28;45385;-73
2023/01/25 01:03:13;;;;;;;;;13.50;12.50;;;;;20.32;36.63;103440.13;5037623;28;45757;-72
2023/01/25 01:05:38;;;;;;;;;10.50;10.50;;;;;20.31;36.83;103447.22;5037385;28;46096;-71
2023/01/25 01:08:03;;;;;;;;;10.75;9.00;;;;;20.28;36.59;103450.06;5037443;28;45394;-72
2023/01/25 01:10:29;;;;;;;;;15.00;9.75;;;;;20.31;36.59;103449.88;5037726;28;45379;-72
2023/01/25 01:12:54;;;;;;;;;13.75;11.25;;;;;20.28;36.93;103447.41;5037233;28;45333;-72
2023/01/25 01:15:20;;;;;;;;;10.00;9.25;;;;;20.30;36.68;103450.81;5037326;28;46444;-72
2023/01/25 01:17:45;;;;;;;;;12.25;11.00;;;;;20.31;36.89;103459.59;5037311;28;45385;-72
2023/01/25 01:20:11;;;;;;;;;12.75;10.00;;;;;20.29;36.79;103457.91;5037310;28;45423;-71
2023/01/25 01:22:37;;;;;;;;;14.75;13.75;;;;;20.27;36.87;103451.84;5019449;28;45615;-73
2023/01/25 01:25:02;;;;;;;;;14.25;11.50;;;;;20.30;36.71;103453.44;5037307;28;46048;-72
2023/01/25 01:27:28;;;;;;;;;11.00;10.75;;;;;20.25;36.51;103448.47;5018401;28;45676;-72
2023/01/25 01:29:53;;;;;;;;;16.00;10.75;;;;;20.29;36.67;103455.25;5037362;28;45210;-72
2023/01/25 01:32:18;;;;;;;;;10.75;10.25;;;;;20.30;36.46;103458.72;5037227;28;45240;-73
2023/01/25 01:34:44;;;;;;;;;12.00;12.00;;;;;20.30;36.43;103458.72;5036911;28;46894;-71
2023/01/25 01:37:09;;;;;;;;;13.25;11.75;;;;;20.25;36.63;103455.56;5037001;28;45395;-72
2023/01/25 01:39:35;;;;;;;;;14.25;12.50;;;;;20.17;36.65;103441.06;5036988;28;45819;-70
2023/01/25 01:42:00;;;;;;;;;12.25;12.00;;;;;20.29;36.95;103459.69;5036735;28;45378;-72
2023/01/25 01:44:51;;;;;;;;;13.75;10.50;;;;;20.28;36.66;103455.34;5036831;28;45953;-71
2023/01/25 01:47:21;;;;;;;;;15.50;11.75;;;;;20.29;36.92;103462.34;5034631;28;45469;-72
2023/01/25 01:49:53;;;;;;;;;15.00;13.75;;;;;20.29;36.44;103467.63;5051336;28;45374;-72
2023/01/25 01:52:23;;;;;;;;;14.00;12.00;;;;;20.29;36.87;103476.41;5036738;28;45483;-73
2023/01/25 01:54:55;;;;;;;;;13.25;11.00;;;;;20.28;36.56;103473.84;5018660;28;47197;-73
2023/01/25 01:57:42;;;;;;;;;11.75;10.00;;;;;20.22;36.55;103463.72;5036287;28;45294;-71
2023/01/25 02:00:12;;;;;;;;;14.75;12.75;;;;;20.29;36.47;103478.22;5036648;28;45360;-72
2023/01/25 02:02:39;;;;;;;;;14.75;11.00;;;;;20.29;36.86;103478.22;5036685;28;45453;-72
2023/01/25 02:05:08;;;;;;;;;12.25;10.75;;;;;20.29;36.56;103475.56;5036358;28;46264;-72
2023/01/25 02:07:36;;;;;;;;;15.00;12.00;;;;;20.29;36.70;103479.06;5036417;28;45408;-72
2023/01/25 02:10:08;;;;;;;;;11.50;11.00;;;;;20.30;36.72;103482.53;5036627;28;45293;-72
2023/01/25 02:12:35;;;;;;;;;12.50;11.25;;;;;20.28;36.54;103476.50;5036188;28;45681;-72
2023/01/25 02:15:01;;;;;;;;;15.75;13.00;;;;;20.29;36.74;103481.72;5036359;28;46305;-72
2023/01/25 02:17:37;;;;;;;;;13.50;10.50;;;;;20.28;36.59;103480.00;5036193;28;45302;-72
2023/01/25 02:20:13;;;;;;;;;11.50;10.75;;;;;20.29;36.55;103476.41;5036432;28;45212;-72
2023/01/25 02:23:00;;;;;;;;;11.50;9.50;;;;;20.29;36.63;103480.84;5036281;28;45365;-72
2023/01/25 02:25:26;;;;;;;;;13.75;11.00;;;;;20.19;36.60;103462.13;5035779;28;47106;-72
2023/01/25 02:27:57;;;;;;;;;14.25;10.50;;;;;20.30;36.75;103479.88;5036059;28;45477;-72
2023/01/25 02:30:23;;;;;;;;;15.00;10.25;;;;;20.24;36.68;103465.31;5036292;28;45361;-72
2023/01/25 02:32:48;;;;;;;;;14.00;12.25;;;;;20.26;36.61;103470.47;5036158;28;45381;-72
2023/01/25 02:35:23;;;;;;;;;13.50;10.75;;;;;20.23;36.45;103468.88;5036135;28;45355;-71
2023/01/25 02:37:50;;;;;;;;;13.00;11.25;;;;;20.31;36.57;103480.75;5036074;28;45332;-72
2023/01/25 02:40:17;;;;;;;;;14.25;12.00;;;;;20.31;36.54;103486.03;5034710;28;45254;-72
2023/01/25 02:42:44;;;;;;;;;15.00;10.75;;;;;20.23;36.60;103468.03;5036026;28;45396;-72
2023/01/25 02:45:15;;;;;;;;;17.50;11.25;;;;;20.30;36.44;103474.59;5035837;28;45352;-72
2023/01/25 02:47:40;;;;;;;;;13.25;12.00;;;;;20.29;36.46;103475.56;5044494;28;45402;-72
2023/01/25 02:50:06;;;;;;;;;13.00;10.00;;;;;20.31;36.42;103475.44;5047725;28;45592;-72
2023/01/25 02:52:32;;;;;;;;;9.75;9.25;;;;;20.31;36.13;103470.16;5035976;28;45514;-72
2023/01/25 02:54:57;;;;;;;;;11.00;10.50;;;;;20.17;36.06;103450.78;5035555;28;46376;-72
2023/01/25 02:57:22;;;;;;;;;13.25;11.00;;;;;20.30;36.21;103471.94;5035760;28;45524;-72
2023/01/25 02:59:48;;;;;;;;;13.75;11.00;;;;;20.17;36.33;103443.72;5035992;28;45298;-72
2023/01/25 03:02:13;;;;;;;;;12.50;10.75;;;;;20.26;36.02;103466.03;5035942;28;45501;-72
2023/01/25 03:04:38;;;;;;;;;20.50;13.25;;;;;20.27;36.16;103458.97;5035588;28;46160;-72
2023/01/25 03:07:04;;;;;;;;;15.00;12.75;;;;;20.29;36.19;103462.34;5035757;28;45387;-72
2023/01/25 03:09:29;;;;;;;;;14.25;13.75;;;;;20.26;36.17;103455.47;5017679;28;45408;-72
2023/01/25 03:11:55;;;;;;;;;13.00;11.25;;;;;20.28;36.25;103456.22;5035830;28;45382;-71
2023/01/25 03:14:20;;;;;;;;;13.25;9.00;;;;;20.27;36.25;103451.03;5035633;28;46052;-72
2023/01/25 03:16:45;;;;;;;;;11.75;8.50;;;;;20.27;36.40;103456.31;5035546;28;45454;-72
2023/01/25 03:19:10;;;;;;;;;13.75;11.00;;;;;20.27;36.25;103454.50;5050920;28;45451;-72
2023/01/25 03:21:36;;;;;;;;;15.75;11.50;;;;;20.01;35.99;103406.03;5055730;28;45382;-72
2023/01/25 03:24:01;;;;;;;;;15.00;12.00;;;;;20.25;36.35;103437.06;5055181;28;45433;-72
2023/01/25 03:26:27;;;;;;;;;9.50;8.00;;;;;20.28;36.29;103439.50;5037496;28;45472;-72
2023/01/25 03:28:53;;;;;;;;;10.75;9.00;;;;;20.28;36.29;103439.50;5055708;28;45423;-70
2023/01/25 03:31:18;;;;;;;;;13.50;11.50;;;;;20.27;36.20;103443.09;5055515;28;45612;-73
2023/01/25 03:33:45;;;;;;;;;12.75;12.00;;;;;20.27;36.11;103443.94;5055542;28;45353;-72
2023/01/25 03:36:11;;;;;;;;;12.00;12.00;;;;;20.27;36.13;103441.28;5055386;28;45433;-72
2023/01/25 03:38:36;;;;;;;;;14.50;12.25;;;;;20.26;36.32;103442.25;5055057;28;45426;-72
2023/01/25 03:41:02;;;;;;;;;5.00;3.50;;;;;20.27;36.29;103438.63;5055489;28;45378;-72
2023/01/25 03:43:28;;;;;;;;;12.75;10.00;;;;;20.26;36.23;103436.97;5037251;28;47087;-73
2023/01/25 03:45:59;;;;;;;;;12.75;8.50;;;;;20.27;36.38;103435.19;5055019;28;45406;-72
2023/01/25 03:48:26;;;;;;;;;13.75;11.00;;;;;20.24;36.15;103433.59;5055121;28;45361;-72
2023/01/25 03:50:53;;;;;;;;;10.50;9.25;;;;;20.25;36.39;103442.34;5041894;28;45341;-72
2023/01/25 03:53:30;;;;;;;;;15.00;11.25;;;;;20.27;36.13;103436.00;5037890;28;47570;-72
2023/01/25 03:56:21;;;;;;;;;11.75;10.00;;;;;20.27;36.11;103432.53;5038565;28;45436;-72
2023/01/25 03:58:46;;;;;;;;;12.25;9.75;;;;;20.27;36.03;103438.63;5035293;28;45550;-72
2023/01/25 04:01:12;;;;;;;;;15.25;11.25;;;;;20.25;35.88;103431.75;5038629;28;45492;-72
2023/01/25 04:03:37;;;;;;;;;9.75;9.75;;;;;20.26;36.18;103428.19;5038431;28;46115;-72
2023/01/25 04:06:04;;;;;;;;;12.25;11.75;;;;;20.26;36.11;103425.53;5038411;28;45349;-72
2023/01/25 04:08:30;;;;;;;;;9.50;9.50;;;;;20.20;36.17;103416.22;5038352;28;45404;-72
2023/01/25 04:11:08;;;;;;;;;11.00;10.25;;;;;20.24;36.10;103420.38;5004003;28;45555;-73
2023/01/25 04:13:35;;;;;;;;;13.25;10.50;;;;;20.24;36.13;103422.16;5038256;28;46996;-72
2023/01/25 04:16:01;;;;;;;;;11.50;10.75;;;;;20.20;36.32;103415.38;5038141;28;45449;-72
2023/01/25 04:18:27;;;;;;;;;12.00;12.00;;;;;20.24;36.20;103427.44;5020665;28;45865;-72
2023/01/25 04:20:53;;;;;;;;;13.75;11.25;;;;;20.24;36.30;103427.44;5038337;28;45471;-73
2023/01/25 04:23:19;;;;;;;;;14.75;13.00;;;;;20.24;36.16;103430.09;5037774;28;45371;-72
2023/01/25 04:26:04;;;;;;;;;16.75;13.25;;;;;20.24;36.12;103428.28;5038014;28;45606;-72
2023/01/25 04:28:30;;;;;;;;;9.50;9.00;;;;;20.23;36.03;103429.22;5038317;28;45375;-72
2023/01/25 04:30:55;;;;;;;;;19.25;13.50;;;;;20.15;36.23;103413.91;5038105;28;45479;-72
2023/01/25 04:33:21;;;;;;;;;11.75;11.50;;;;;20.22;36.13;103424.88;5037802;28;46048;-72
2023/01/25 04:35:47;;;;;;;;;15.25;13.00;;;;;20.23;36.33;103425.75;5037703;28;45425;-72
2023/01/25 04:38:12;;;;;;;;;14.50;10.75;;;;;19.89;35.87;103363.63;5038035;28;45381;-72
2023/01/25 04:40:38;;;;;;;;;11.50;11.25;;;;;20.11;36.10;103398.31;5037956;28;45504;-72
2023/01/25 04:43:05;;;;;;;;;15.00;12.25;;;;;20.21;35.84;103420.56;5037900;28;45764;-73
2023/01/25 04:45:31;;;;;;;;;10.75;10.75;;;;;20.22;35.86;103422.25;5037703;28;45253;-72
2023/01/25 04:47:59;;;;;;;;;12.50;12.50;;;;;20.22;36.30;103419.59;5048851;28;45337;-72
2023/01/25 04:50:25;;;;;;;;;14.00;10.75;;;;;20.20;36.12;103405.66;5057512;28;45505;-72
2023/01/25 04:52:50;;;;;;;;;16.00;11.75;;;;;20.16;36.13;103398.88;5057626;28;45817;-72
2023/01/25 04:55:16;;;;;;;;;14.25;12.00;;;;;20.23;36.04;103404.59;5057941;28;45296;-72
2023/01/25 04:57:42;;;;;;;;;10.25;9.00;;;;;20.11;36.04;103393.91;5057909;28;45448;-72
2023/01/25 05:00:08;;;;;;;;;14.25;12.00;;;;;20.22;35.86;103401.09;5057673;28;45474;-72
2023/01/25 05:02:33;;;;;;;;;10.75;9.25;;;;;20.22;35.86;103402.91;5056789;28;47233;-72
2023/01/25 05:04:59;;;;;;;;;11.25;10.25;;;;;20.22;35.97;103401.09;5057169;28;45379;-72
2023/01/25 05:07:24;;;;;;;;;13.50;10.50;;;;;20.22;36.19;103395.00;5057874;28;45433;-72
2023/01/25 05:09:49;;;;;;;;;17.50;13.25;;;;;20.23;36.06;103396.66;5057871;28;45272;-72
2023/01/25 05:12:14;;;;;;;;;13.50;10.00;;;;;20.23;36.16;103399.31;5057426;28;46091;-72
2023/01/25 05:14:40;;;;;;;;;11.50;9.00;;;;;20.24;35.96;103398.38;5057490;28;45345;-72
2023/01/25 05:17:06;;;;;;;;;13.00;11.00;;;;;20.23;36.13;103397.50;5057619;28;45368;-73
2023/01/25 05:19:32;;;;;;;;;14.50;12.00;;;;;20.22;36.08;103395.81;5057090;28;45374;-73
2023/01/25 05:21:58;;;;;;;;;14.25;12.75;;;;;20.23;35.81;103389.59;5057220;28;47212;-72
2023/01/25 05:24:29;;;;;;;;;14.50;11.75;;;;;20.20;36.17;103387.16;5057116;28;45425;-72
2023/01/25 05:27:13;;;;;;;;;15.50;11.75;;;;;20.25;35.81;103395.59;5057416;28;45453;-72
2023/01/25 05:29:41;;;;;;;;;14.75;12.50;;;;;20.25;35.76;103394.75;5057389;28;45358;-72
2023/01/25 05:32:19;;;;;;;;;7.50;6.00;;;;;20.26;36.55;103399.09;5057114;28;46048;-72
2023/01/25 05:34:45;;;;;;;;;11.25;11.25;;;;;20.23;36.15;103394.88;5056616;28;45412;-72
2023/01/25 05:37:13;;;;;;;;;15.25;11.75;;;;;20.25;35.83;103392.09;5057298;28;45420;-72
2023/01/25 05:39:39;;;;;;;;;12.75;11.25;;;;;20.21;36.02;103388.00;5057046;28;45392;-72
2023/01/25 05:42:14;;;;;;;;;12.50;10.25;;;;;20.24;36.26;103386.00;5056918;28;46143;-72
2023/01/25 05:44:39;;;;;;;;;11.00;9.25;;;;;20.20;35.87;103384.50;5057011;28;45259;-72
2023/01/25 05:47:05;;;;;;;;;13.25;11.25;;;;;20.26;35.76;103391.16;5056762;28;45344;-72
2023/01/25 05:49:30;;;;;;;;;13.25;11.50;;;;;20.24;36.29;103383.34;5053168;28;45454;-72
2023/01/25 05:51:56;;;;;;;;;11.50;9.75;;;;;20.24;36.22;103388.66;5036820;28;45413;-72
2023/01/25 05:54:21;;;;;;;;;9.50;9.50;;;;;20.17;35.81;103369.69;5036742;28;45423;-72
2023/01/25 05:56:48;;;;;;;;;15.75;12.75;;;;;20.25;36.02;103394.75;5036887;28;45846;-72
2023/01/25 05:59:14;;;;;;;;;13.50;10.00;;;;;20.15;36.02;103373.41;5036793;28;45380;-72
2023/01/25 06:01:39;;;;;;;;;12.75;12.00;;;;;20.25;36.19;103387.66;5038813;28;45917;-72
2023/01/25 06:04:05;;;;;;;;;12.25;10.25;;;;;20.25;35.96;103394.75;5036198;28;45669;-72
2023/01/25 06:06:30;;;;;;;;;12.00;9.75;;;;;20.26;36.49;103399.94;5036687;28;45385;-72
2023/01/25 06:08:56;;;;;;;;;12.75;12.25;;;;;20.26;36.18;103399.94;5036737;28;45381;-72
2023/01/25 06:11:23;;;;;;;;;14.00;10.75;;;;;20.26;36.17;103397.31;5043923;28;46046;-72
2023/01/25 06:13:50;;;;;;;;;18.50;10.50;;;;;20.26;36.28;103399.09;5056431;28;45338;-72
2023/01/25 06:16:16;;;;;;;;;13.00;11.75;;;;;20.14;36.39;103383.13;5038567;28;45475;-72
2023/01/25 06:18:42;;;;;;;;;12.50;11.75;;;;;20.26;36.14;103399.94;5055618;28;45486;-73
2023/01/25 06:21:07;;;;;;;;;13.50;11.50;;;;;20.22;36.11;103387.06;5055559;28;46149;-73
2023/01/25 06:23:33;;;;;;;;;13.00;12.75;;;;;20.28;36.34;103399.84;5056384;28;45535;-72
2023/01/25 06:26:00;;;;;;;;;10.50;10.00;;;;;20.27;36.18;103392.88;5056553;28;45346;-71
2023/01/25 06:28:29;;;;;;;;;14.50;13.00;;;;;20.28;36.12;103397.19;5056352;28;45364;-73
2023/01/25 06:30:54;;;;;;;;;15.75;10.00;;;;;20.22;36.29;103390.53;5056183;28;46687;-74
2023/01/25 06:33:20;;;;;;;;;12.25;10.50;;;;;20.28;36.27;103395.41;5055835;28;45283;-73
2023/01/25 06:35:45;;;;;;;;;11.75;9.50;;;;;20.29;36.18;103391.81;5056301;28;45393;-73
2023/01/25 06:38:10;;;;;;;;;12.00;11.50;;;;;20.29;36.48;103397.09;5056250;28;45284;-73
2023/01/25 06:40:36;;;;;;;;;10.50;10.50;;;;;20.31;36.64;103391.69;5056097;28;45289;-73
2023/01/25 06:43:06;;;;;;;;;7.75;5.25;;;;;20.31;36.88;103391.69;5056316;28;45625;-73
2023/01/25 06:45:32;;;;;;;;;11.75;9.50;;;;;20.31;36.94;103390.84;5056029;28;45451;-74
2023/01/25 06:47:57;;;;;;;;;12.75;11.00;;;;;20.31;36.80;103396.13;5054630;28;45420;-73
2023/01/25 06:50:22;;;;;;;;;10.25;9.75;;;;;20.32;36.88;103390.75;5055490;28;46140;-71
2023/01/25 06:52:52;;;;;;;;;10.00;9.00;;;;;20.34;36.84;103393.28;5055801;28;46034;-72
2023/01/25 06:55:19;;;;;;;;;10.75;10.75;;;;;20.34;36.71;103394.13;5055757;28;45453;-74
2023/01/25 06:57:44;;;;;;;;;12.00;10.00;;;;;20.29;36.40;103377.75;5055765;28;45391;-74
2023/01/25 07:00:10;;;;;;;;;6.75;6.75;;;;;20.35;36.72;103393.16;5053177;28;45277;-74
2023/01/25 07:02:36;;;;;;;;;10.75;10.25;;;;;20.26;37.06;103381.44;5052808;28;45341;-73
2023/01/25 07:05:01;;;;;;;;;11.75;9.25;;;;;20.26;36.68;103378.81;5050884;28;45474;-72
2023/01/25 07:07:27;;;;;;;;;11.50;9.75;;;;;20.38;37.05;103392.09;5046247;28;45564;-73
2023/01/25 07:09:52;;;;;;;;;15.50;9.50;;;;;20.34;37.09;103396.78;5044208;28;46371;-72
2023/01/25 07:12:19;;;;;;;;;12.00;10.75;;;;;20.37;37.05;103393.06;5042323;28;45264;-72
2023/01/25 07:14:46;;;;;;;;;12.00;11.00;;;;;20.37;36.95;103391.28;5044275;28;45366;-72
2023/01/25 07:17:11;;;;;;;;;12.50;11.00;;;;;20.32;36.72;103382.81;5046229;28;45388;-71
2023/01/25 07:19:36;;;;;;;;;12.00;10.50;;;;;20.38;36.95;103394.75;5045123;28;47036;-72
2023/01/25 07:22:02;;;;;;;;;12.00;9.50;;;;;20.37;36.93;103388.63;5045842;28;45343;-71
2023/01/25 07:24:28;;;;;;;;;12.75;9.25;;;;;20.34;37.03;103390.63;5026570;28;45456;-72
2023/01/25 07:26:54;;;;;;;;;11.50;10.25;;;;;20.37;37.00;103399.22;5058181;28;45439;-73
2023/01/25 07:29:19;;;;;;;;;11.25;10.00;;;;;20.37;36.84;103403.66;5061182;28;45436;-73
2023/01/25 07:31:44;;;;;;;;;12.25;10.75;;;;;20.37;36.63;103401.00;5061758;28;45388;-72
2023/01/25 07:34:12;;;;;;;;;12.25;12.25;;;;;20.33;36.39;103397.72;5061842;28;45911;-73
2023/01/25 07:36:38;;;;;;;;;13.75;12.00;;;;;20.37;36.70;103406.28;5062086;28;45332;-73
2023/01/25 07:39:03;;;;;;;;;10.50;9.50;;;;;20.37;36.71;103408.94;5061756;28;45345;-72
2023/01/25 07:41:29;;;;;;;;;13.25;9.00;;;;;20.35;36.58;103408.22;5061815;28;45320;-71
2023/01/25 07:43:54;;;;;;;;;12.25;10.75;;;;;20.36;36.47;103400.16;5062266;28;45403;-72
2023/01/25 07:46:20;;;;;;;;;9.50;9.25;;;;;20.23;36.52;103386.09;5061631;28;45363;-73
2023/01/25 07:48:51;;;;;;;;;13.75;11.00;;;;;20.37;36.83;103403.66;5061462;28;47228;-73
2023/01/25 07:51:23;;;;;;;;;15.75;12.25;;;;;20.38;36.46;103400.03;5061541;28;45475;-73
2023/01/25 07:53:51;;;;;;;;;10.50;9.75;;;;;20.38;36.60;103397.38;5061772;28;45397;-73
2023/01/25 07:56:18;;;;;;;;;10.50;10.50;;;;;20.38;36.39;103392.97;5061532;28;45567;-72
2023/01/25 07:58:43;;;;;;;;;13.00;10.50;;;;;20.31;36.74;103385.56;5061024;28;46183;-71
2023/01/25 08:01:14;;;;;;;;;14.00;9.75;;;;;20.38;36.73;103392.09;5061325;28;45381;-71
2023/01/25 08:03:40;;;;;;;;;9.75;8.25;;;;;20.20;36.78;103368.63;5061466;28;45419;-73
2023/01/25 08:06:06;;;;;;;;;11.25;10.25;;;;;20.38;36.69;103395.59;5060757;28;45473;-73
2023/01/25 08:08:35;;;;;;;;;13.25;12.00;;;;;20.38;36.60;103381.53;5061395;28;46986;-72
2023/01/25 08:11:10;;;;;;;;;12.00;10.50;;;;;20.38;36.76;103384.16;5061393;28;45357;-73
2023/01/25 08:13:35;;;;;;;;;11.50;11.25;;;;;20.38;36.59;103381.53;5061332;28;45395;-72
2023/01/25 08:16:01;;;;;;;;;13.75;10.75;;;;;20.39;36.62;103377.94;5043138;28;45528;-72
2023/01/25 08:18:26;;;;;;;;;12.25;10.00;;;;;20.38;36.50;103378.88;5061187;28;45664;-72
2023/01/25 08:20:51;;;;;;;;;12.75;10.00;;;;;20.38;36.63;103376.25;5061441;28;45352;-72
2023/01/25 08:23:19;;;;;;;;;10.75;9.00;;;;;20.31;36.46;103372.34;5061590;28;45333;-72
2023/01/25 08:25:44;;;;;;;;;17.75;13.50;;;;;20.32;34.41;103382.81;5061436;28;45497;-71
2023/01/25 08:28:10;;;;;;;;;19.25;16.25;;;;;20.23;34.90;103376.38;5060766;28;46262;-70
2023/01/25 08:30:35;;;;;;;;;17.75;14.75;;;;;20.19;35.03;103385.47;5061425;28;45395;-71
2023/01/25 08:33:00;;;;;;;;;13.00;12.00;;;;;20.17;35.63;103372.34;5043370;28;45408;-71
2023/01/25 08:35:26;;;;;;;;;18.25;13.25;;;;;20.10;35.97;103362.25;5061193;28;45382;-71
2023/01/25 08:37:51;;;;;;;;;14.75;11.50;;;;;20.21;36.00;103369.50;5057318;28;46012;-71
2023/01/25 08:40:16;;;;;;;;;13.50;11.50;;;;;20.21;36.20;103370.34;5057878;28;45273;-71
2023/01/25 08:42:42;;;;;;;;;13.25;12.00;;;;;20.22;35.97;103358.81;5057624;28;45277;-72
2023/01/25 08:45:08;;;;;;;;;14.75;11.00;;;;;20.18;36.15;103350.25;5058075;28;45365;-71
2023/01/25 08:47:34;;;;;;;;;15.25;11.75;;;;;20.24;36.19;103356.06;5057130;28;46262;-71
2023/01/25 08:49:59;;;;;;;;;16.75;9.75;;;;;20.23;36.00;103357.00;5057552;28;45422;-71
2023/01/25 08:52:25;;;;;;;;;13.75;12.00;;;;;20.16;36.10;103349.53;5057860;28;45322;-70
2023/01/25 08:54:51;;;;;;;;;18.75;10.75;;;;;20.25;36.05;103366.53;5057637;28;45520;-70
2023/01/25 08:57:16;;;;;;;;;18.25;13.25;;;;;20.12;36.06;103342.72;5057200;28;45999;-71
2023/01/25 08:59:41;;;;;;;;;15.00;11.00;;;;;20.24;36.26;103367.50;5057608;28;45358;-71
2023/01/25 09:02:10;;;;;;;;;15.50;12.75;;;;;20.17;36.32;103353.84;5057808;28;45376;-69
2023/01/25 09:04:36;;;;;;;;;13.25;11.25;;;;;20.25;36.08;103361.22;5057442;28;45522;-72
2023/01/25 09:07:01;;;;;;;;;16.75;13.00;;;;;20.27;36.33;103367.25;5057142;28;46231;-72
2023/01/25 09:09:28;;;;;;;;;12.25;12.25;;;;;20.26;36.40;103365.59;5057433;28;45376;-72
2023/01/25 09:11:54;;;;;;;;;13.50;11.50;;;;;20.26;36.44;103362.94;5057475;28;45278;-73
2023/01/25 09:14:19;;;;;;;;;11.00;9.50;;;;;20.25;36.39;103355.94;5057421;28;45463;-71
2023/01/25 09:16:44;;;;;;;;;13.25;12.00;;;;;20.28;36.51;103358.38;5057156;28;47000;-73
2023/01/25 09:19:10;;;;;;;;;13.00;12.00;;;;;20.28;36.68;103360.19;5057340;28;45409;-71
2023/01/25 09:21:36;;;;;;;;;15.75;13.00;;;;;20.28;36.39;103361.03;5057295;28;45707;-71
2023/01/25 09:24:01;;;;;;;;;12.00;10.00;;;;;20.18;36.67;103338.81;5057459;28;45404;-72
2023/01/25 09:26:27;;;;;;;;;14.50;10.50;;;;;20.28;36.71;103349.59;5038826;28;46040;-72
2023/01/25 09:28:53;;;;;;;;;16.50;9.75;;;;;20.28;36.65;103360.19;5057124;28;45369;-72
2023/01/25 09:31:19;;;;;;;;;13.50;10.50;;;;;20.29;36.46;103356.59;5057118;28;45357;-72
2023/01/25 09:33:45;;;;;;;;;10.00;8.75;;;;;20.28;36.61;103361.03;5056853;28;45380;-72
2023/01/25 09:36:11;;;;;;;;;11.75;10.75;;;;;20.24;36.35;103351.63;5056724;28;47009;-72
2023/01/25 09:38:37;;;;;;;;;16.50;12.25;;;;;20.23;36.68;103357.84;5056712;28;45300;-72
2023/01/25 09:41:16;;;;;;;;;18.00;14.00;;;;;20.16;36.62;103336.31;5056912;28;45326;-72
2023/01/25 09:44:19;;;;;;;;;12.75;10.75;;;;;20.29;36.52;103367.16;5056993;28;45444;-71
2023/01/25 09:46:48;;;;;;;;;13.75;10.00;;;;;20.16;36.46;103338.09;5038267;28;47413;-70
2023/01/25 09:49:38;;;;;;;;;16.50;10.75;;;;;20.28;36.14;103363.66;5055955;28;45376;-71
2023/01/25 09:52:15;;;;;;;;;12.00;11.50;;;;;20.28;36.59;103360.19;5056729;28;45369;-72
2023/01/25 09:54:44;;;;;;;;;9.00;9.00;;;;;20.28;36.18;103357.53;5056263;28;45395;-71
2023/01/25 09:57:16;;;;;;;;;5.25;2.25;;;;;20.28;36.30;103361.03;5056615;28;46383;-71
2023/01/25 09:59:44;;;;;;;;;15.00;11.00;;;;;20.26;36.03;103351.50;5056477;28;45375;-71
2023/01/25 10:02:31;;;;;;;;;14.25;13.00;;;;;20.29;36.19;103353.94;5056344;28;45348;-71
2023/01/25 10:05:06;;;;;;;;;14.00;11.75;;;;;20.29;36.52;103364.53;5038406;28;45456;-71
2023/01/25 10:07:56;;;;;;;;;13.75;11.50;;;;;20.29;36.42;103361.88;5056162;28;45373;-72
2023/01/25 10:10:41;;;;;;;;;12.25;11.50;;;;;20.30;36.25;103355.63;5049654;28;45741;-71
2023/01/25 10:13:16;;;;;;;;;14.00;12.75;;;;;20.30;36.50;103352.97;5056479;28;45379;-72
2023/01/25 10:15:51;;;;;;;;;13.50;11.00;;;;;20.32;36.04;103355.53;5056428;28;45334;-72
2023/01/25 10:18:43;;;;;;;;;10.50;9.50;;;;;20.31;36.18;103345.91;5056074;28;45425;-72
2023/01/25 10:21:20;;;;;;;;;16.25;11.00;;;;;20.31;36.18;103337.97;5056266;28;45336;-72
2023/01/25 10:24:00;;;;;;;;;14.25;9.25;;;;;20.32;35.95;103339.66;5055933;28;45278;-71
2023/01/25 10:26:31;;;;;;;;;14.00;11.75;;;;;20.29;36.24;103336.28;5056114;28;45457;-72
2023/01/25 10:29:14;;;;;;;;;12.25;11.00;;;;;20.31;36.33;103333.53;5056117;28;46174;-69
2023/01/25 10:31:45;;;;;;;;;16.50;11.25;;;;;20.31;36.18;103341.47;5056069;28;45519;-71
2023/01/25 10:34:17;;;;;;;;;11.25;10.25;;;;;20.32;35.96;103337.03;5056060;28;45453;-72
2023/01/25 10:36:46;;;;;;;;;13.00;11.75;;;;;20.23;36.42;103323.50;5055824;28;45438;-71
2023/01/25 10:39:11;;;;;;;;;10.50;9.50;;;;;20.24;36.00;103313.78;5055499;28;46274;-72
2023/01/25 10:41:42;;;;;;;;;11.50;9.00;;;;;20.28;36.05;103315.22;5055630;28;47217;-71
2023/01/25 10:44:20;;;;;;;;;16.25;13.00;;;;;20.32;36.07;103313.22;5056110;28;45409;-72
2023/01/25 10:47:14;;;;;;;;;17.00;10.25;;;;;20.31;36.25;103312.38;5055603;28;45372;-72
2023/01/25 10:49:46;;;;;;;;;16.75;13.75;;;;;20.30;36.08;103310.69;5055610;28;46058;-72
2023/01/25 10:52:13;;;;;;;;;16.00;10.50;;;;;20.29;36.04;103304.56;5055615;28;45370;-72
2023/01/25 10:54:38;;;;;;;;;12.25;11.25;;;;;20.29;36.02;103306.38;5055427;28;45368;-72
2023/01/25 10:57:07;;;;;;;;;11.75;9.75;;;;;20.29;36.08;103298.44;5055732;28;45336;-71
2023/01/25 10:59:34;;;;;;;;;15.00;11.00;;;;;20.29;36.25;103293.16;5055245;28;45464;-71
2023/01/25 11:02:34;;;;;;;;;14.00;11.50;;;;;20.29;36.15;103290.50;5055293;28;45398;-71
2023/01/25 11:05:24;;;;;;;;;13.75;10.25;;;;;20.28;35.98;103276.44;5035651;28;45320;-71
2023/01/25 11:07:49;;;;;;;;;13.00;10.50;;;;;20.22;36.20;103265.44;5035405;28;45341;-72
2023/01/25 11:10:30;;;;;;;;;13.25;10.25;;;;;20.29;36.15;103264.06;5035281;28;47114;-71
2023/01/25 11:13:14;;;;;;;;;9.75;8.25;;;;;20.29;36.08;103267.56;5035414;28;45380;-72
2023/01/25 11:15:44;;;;;;;;;17.25;13.50;;;;;20.28;36.17;103263.22;5035174;28;45377;-71
2023/01/25 11:18:19;;;;;;;;;13.75;11.50;;;;;20.27;36.13;103248.28;5035372;28;45401;-72